sensor_id;sensor_type;location;lat;lon;timestamp;P1;durP1;ratioP1;P2;durP2;ratioP2
76854;SDS011;66343;44.588;33.450;2022-12-24T00:01:21;32.13;;;15.52;;
76854;SDS011;66343;44.588;33.450;2022-12-24T00:03:55;28.15;;;16.23;;
76854;SDS011;66343;44.588;33.450;2022-12-24T00:06:29;29.25;;;16.40;;
76854;SDS011;66343;44.588;33.450;2022-12-24T00:09:04;28.02;;;16.27;;
76854;SDS011;66343;44.588;33.450;2022-12-24T00:11:38;29.35;;;15.85;;
76854;SDS011;66343;44.588;33.450;2022-12-24T00:14:17;26.83;;;15.35;;
76854;SDS011;66343;44.588;33.450;2022-12-24T00:17:15;27.15;;;15.05;;
76854;SDS011;66343;44.588;33.450;2022-12-24T00:20:13;27.85;;;15.48;;
76854;SDS011;66343;44.588;33.450;2022-12-24T00:23:11;28.23;;;14.85;;
76854;SDS011;66343;44.588;33.450;2022-12-24T00:26:10;24.65;;;14.20;;
76854;SDS011;66343;44.588;33.450;2022-12-24T00:29:02;25.88;;;14.90;;
76854;SDS011;66343;44.588;33.450;2022-12-24T00:31:57;27.80;;;14.75;;
76854;SDS011;66343;44.588;33.450;2022-12-24T00:34:53;28.60;;;15.90;;
76854;SDS011;66343;44.588;33.450;2022-12-24T00:37:46;28.02;;;15.60;;
76854;SDS011;66343;44.588;33.450;2022-12-24T00:40:20;25.48;;;14.88;;
76854;SDS011;66343;44.588;33.450;2022-12-24T00:43:01;27.73;;;16.60;;
76854;SDS011;66343;44.588;33.450;2022-12-24T00:45:43;27.63;;;14.73;;
76854;SDS011;66343;44.588;33.450;2022-12-24T00:48:20;27.80;;;16.67;;
76854;SDS011;66343;44.588;33.450;2022-12-24T00:51:20;30.25;;;16.58;;
76854;SDS011;66343;44.588;33.450;2022-12-24T00:54:24;25.42;;;15.32;;
76854;SDS011;66343;44.588;33.450;2022-12-24T00:57:23;30.75;;;16.50;;
76854;SDS011;66343;44.588;33.450;2022-12-24T01:00:23;28.75;;;15.77;;
76854;SDS011;66343;44.588;33.450;2022-12-24T01:03:21;26.35;;;15.27;;
76854;SDS011;66343;44.588;33.450;2022-12-24T01:06:23;26.45;;;15.07;;
76854;SDS011;66343;44.588;33.450;2022-12-24T01:09:12;27.00;;;14.80;;
76854;SDS011;66343;44.588;33.450;2022-12-24T01:12:15;29.60;;;15.75;;
76854;SDS011;66343;44.588;33.450;2022-12-24T01:15:16;24.70;;;14.82;;
76854;SDS011;66343;44.588;33.450;2022-12-24T01:18:11;28.77;;;15.13;;
76854;SDS011;66343;44.588;33.450;2022-12-24T01:21:05;28.60;;;15.30;;
76854;SDS011;66343;44.588;33.450;2022-12-24T01:24:20;27.13;;;16.08;;
76854;SDS011;66343;44.588;33.450;2022-12-24T01:27:27;27.73;;;14.80;;
76854;SDS011;66343;44.588;33.450;2022-12-24T01:30:28;27.45;;;14.98;;
76854;SDS011;66343;44.588;33.450;2022-12-24T01:33:33;25.35;;;15.07;;
76854;SDS011;66343;44.588;33.450;2022-12-24T01:36:23;30.08;;;15.88;;
76854;SDS011;66343;44.588;33.450;2022-12-24T01:39:17;25.50;;;14.02;;
76854;SDS011;66343;44.588;33.450;2022-12-24T01:42:13;32.80;;;16.95;;
76854;SDS011;66343;44.588;33.450;2022-12-24T01:48:37;28.80;;;16.20;;
76854;SDS011;66343;44.588;33.450;2022-12-24T01:51:48;30.17;;;16.80;;
76854;SDS011;66343;44.588;33.450;2022-12-24T01:54:47;31.60;;;18.02;;
76854;SDS011;66343;44.588;33.450;2022-12-24T01:57:58;33.78;;;18.75;;
76854;SDS011;66343;44.588;33.450;2022-12-24T02:01:00;28.52;;;17.30;;
76854;SDS011;66343;44.588;33.450;2022-12-24T02:04:04;34.95;;;17.67;;
76854;SDS011;66343;44.588;33.450;2022-12-24T02:07:10;32.47;;;17.33;;
76854;SDS011;66343;44.588;33.450;2022-12-24T02:10:24;30.75;;;17.95;;
76854;SDS011;66343;44.588;33.450;2022-12-24T02:13:21;32.30;;;17.73;;
76854;SDS011;66343;44.588;33.450;2022-12-24T02:16:23;34.00;;;18.83;;
76854;SDS011;66343;44.588;33.450;2022-12-24T02:29:18;35.15;;;17.25;;
76854;SDS011;66343;44.588;33.450;2022-12-24T02:39:07;31.52;;;16.42;;
76854;SDS011;66343;44.588;33.450;2022-12-24T02:42:30;30.23;;;16.60;;
76854;SDS011;66343;44.588;33.450;2022-12-24T02:45:31;29.45;;;17.15;;
76854;SDS011;66343;44.588;33.450;2022-12-24T02:48:40;31.42;;;17.15;;
76854;SDS011;66343;44.588;33.450;2022-12-24T02:51:36;34.22;;;18.17;;
76854;SDS011;66343;44.588;33.450;2022-12-24T02:54:43;30.27;;;17.38;;
76854;SDS011;66343;44.588;33.450;2022-12-24T03:13:33;32.58;;;16.95;;
76854;SDS011;66343;44.588;33.450;2022-12-24T03:16:26;34.90;;;17.80;;
76854;SDS011;66343;44.588;33.450;2022-12-24T03:19:35;34.42;;;18.52;;
76854;SDS011;66343;44.588;33.450;2022-12-24T03:22:38;35.95;;;17.80;;
76854;SDS011;66343;44.588;33.450;2022-12-24T03:25:12;32.95;;;17.60;;
76854;SDS011;66343;44.588;33.450;2022-12-24T03:28:06;31.25;;;17.02;;
76854;SDS011;66343;44.588;33.450;2022-12-24T03:31:01;30.02;;;16.60;;
76854;SDS011;66343;44.588;33.450;2022-12-24T03:34:00;31.48;;;16.63;;
76854;SDS011;66343;44.588;33.450;2022-12-24T03:36:51;32.33;;;17.08;;
76854;SDS011;66343;44.588;33.450;2022-12-24T03:39:42;33.78;;;17.95;;
76854;SDS011;66343;44.588;33.450;2022-12-24T03:42:37;32.65;;;17.42;;
76854;SDS011;66343;44.588;33.450;2022-12-24T03:45:33;30.17;;;15.98;;
76854;SDS011;66343;44.588;33.450;2022-12-24T03:48:25;31.40;;;17.65;;
76854;SDS011;66343;44.588;33.450;2022-12-24T03:51:19;33.72;;;17.48;;
76854;SDS011;66343;44.588;33.450;2022-12-24T03:54:14;31.27;;;16.42;;
76854;SDS011;66343;44.588;33.450;2022-12-24T03:57:12;31.88;;;16.73;;
76854;SDS011;66343;44.588;33.450;2022-12-24T04:00:02;29.88;;;16.70;;
76854;SDS011;66343;44.588;33.450;2022-12-24T04:02:52;32.15;;;18.10;;
76854;SDS011;66343;44.588;33.450;2022-12-24T04:05:58;31.88;;;17.88;;
76854;SDS011;66343;44.588;33.450;2022-12-24T04:09:04;30.23;;;16.67;;
76854;SDS011;66343;44.588;33.450;2022-12-24T04:12:01;33.53;;;17.50;;
76854;SDS011;66343;44.588;33.450;2022-12-24T04:14:37;31.52;;;16.63;;
76854;SDS011;66343;44.588;33.450;2022-12-24T04:17:27;29.58;;;15.20;;
76854;SDS011;66343;44.588;33.450;2022-12-24T04:20:21;33.63;;;16.70;;
76854;SDS011;66343;44.588;33.450;2022-12-24T04:23:24;32.55;;;18.83;;
76854;SDS011;66343;44.588;33.450;2022-12-24T04:26:32;34.17;;;16.92;;
76854;SDS011;66343;44.588;33.450;2022-12-24T04:29:35;33.15;;;17.25;;
76854;SDS011;66343;44.588;33.450;2022-12-24T04:32:29;31.02;;;17.13;;
76854;SDS011;66343;44.588;33.450;2022-12-24T04:35:38;30.30;;;16.38;;
76854;SDS011;66343;44.588;33.450;2022-12-24T04:38:13;29.88;;;16.50;;
76854;SDS011;66343;44.588;33.450;2022-12-24T04:41:12;37.40;;;17.70;;
76854;SDS011;66343;44.588;33.450;2022-12-24T04:44:12;31.10;;;17.48;;
76854;SDS011;66343;44.588;33.450;2022-12-24T04:47:14;32.47;;;17.83;;
76854;SDS011;66343;44.588;33.450;2022-12-24T04:50:08;32.05;;;17.80;;
76854;SDS011;66343;44.588;33.450;2022-12-24T04:53:07;34.50;;;17.88;;
76854;SDS011;66343;44.588;33.450;2022-12-24T04:55:48;35.47;;;18.58;;
76854;SDS011;66343;44.588;33.450;2022-12-24T04:58:41;34.88;;;18.48;;
76854;SDS011;66343;44.588;33.450;2022-12-24T05:01:50;32.42;;;16.92;;
76854;SDS011;66343;44.588;33.450;2022-12-24T05:04:46;36.00;;;17.80;;
76854;SDS011;66343;44.588;33.450;2022-12-24T05:07:50;35.08;;;17.98;;
76854;SDS011;66343;44.588;33.450;2022-12-24T05:10:46;35.47;;;17.55;;
76854;SDS011;66343;44.588;33.450;2022-12-24T05:13:45;35.58;;;18.90;;
76854;SDS011;66343;44.588;33.450;2022-12-24T05:16:42;36.65;;;17.73;;
76854;SDS011;66343;44.588;33.450;2022-12-24T05:19:33;33.72;;;17.48;;
76854;SDS011;66343;44.588;33.450;2022-12-24T05:22:25;31.65;;;17.65;;
76854;SDS011;66343;44.588;33.450;2022-12-24T05:25:37;34.45;;;18.25;;
76854;SDS011;66343;44.588;33.450;2022-12-24T05:28:52;39.65;;;19.30;;
76854;SDS011;66343;44.588;33.450;2022-12-24T05:31:51;36.33;;;18.70;;
76854;SDS011;66343;44.588;33.450;2022-12-24T05:34:43;35.13;;;18.58;;
76854;SDS011;66343;44.588;33.450;2022-12-24T05:37:40;35.92;;;17.73;;
76854;SDS011;66343;44.588;33.450;2022-12-24T05:40:32;34.40;;;17.17;;
76854;SDS011;66343;44.588;33.450;2022-12-24T05:43:26;32.88;;;17.95;;
76854;SDS011;66343;44.588;33.450;2022-12-24T05:46:19;37.42;;;18.48;;
76854;SDS011;66343;44.588;33.450;2022-12-24T05:49:14;37.67;;;18.55;;
76854;SDS011;66343;44.588;33.450;2022-12-24T05:51:51;35.13;;;19.08;;
76854;SDS011;66343;44.588;33.450;2022-12-24T05:54:43;35.92;;;18.70;;
76854;SDS011;66343;44.588;33.450;2022-12-24T05:57:31;36.10;;;17.42;;
76854;SDS011;66343;44.588;33.450;2022-12-24T06:00:10;38.53;;;20.33;;
76854;SDS011;66343;44.588;33.450;2022-12-24T06:03:08;37.85;;;18.90;;
76854;SDS011;66343;44.588;33.450;2022-12-24T06:05:59;37.97;;;18.92;;
76854;SDS011;66343;44.588;33.450;2022-12-24T06:08:52;39.95;;;19.98;;
76854;SDS011;66343;44.588;33.450;2022-12-24T06:11:44;38.72;;;19.75;;
76854;SDS011;66343;44.588;33.450;2022-12-24T06:14:35;37.40;;;18.75;;
76854;SDS011;66343;44.588;33.450;2022-12-24T06:20:24;38.45;;;19.73;;
76854;SDS011;66343;44.588;33.450;2022-12-24T06:23:00;37.20;;;19.17;;
76854;SDS011;66343;44.588;33.450;2022-12-24T06:25:57;40.13;;;19.90;;
76854;SDS011;66343;44.588;33.450;2022-12-24T06:28:58;41.75;;;20.75;;
76854;SDS011;66343;44.588;33.450;2022-12-24T06:31:36;39.33;;;20.08;;
76854;SDS011;66343;44.588;33.450;2022-12-24T06:34:15;36.65;;;19.75;;
76854;SDS011;66343;44.588;33.450;2022-12-24T06:36:48;37.78;;;20.50;;
76854;SDS011;66343;44.588;33.450;2022-12-24T06:39:39;41.53;;;21.13;;
76854;SDS011;66343;44.588;33.450;2022-12-24T06:42:19;38.88;;;21.48;;
76854;SDS011;66343;44.588;33.450;2022-12-24T06:45:15;39.90;;;21.70;;
76854;SDS011;66343;44.588;33.450;2022-12-24T06:48:19;42.42;;;21.70;;
76854;SDS011;66343;44.588;33.450;2022-12-24T06:51:14;38.10;;;20.33;;
76854;SDS011;66343;44.588;33.450;2022-12-24T06:53:53;37.30;;;20.95;;
76854;SDS011;66343;44.588;33.450;2022-12-24T06:56:27;37.63;;;20.42;;
76854;SDS011;66343;44.588;33.450;2022-12-24T06:59:02;35.80;;;20.27;;
76854;SDS011;66343;44.588;33.450;2022-12-24T07:01:42;38.35;;;21.95;;
76854;SDS011;66343;44.588;33.450;2022-12-24T07:04:24;35.47;;;20.60;;
76854;SDS011;66343;44.588;33.450;2022-12-24T07:06:57;34.53;;;20.90;;
76854;SDS011;66343;44.588;33.450;2022-12-24T07:10:02;35.83;;;20.48;;
76854;SDS011;66343;44.588;33.450;2022-12-24T07:12:53;41.20;;;21.17;;
76854;SDS011;66343;44.588;33.450;2022-12-24T07:15:57;40.10;;;21.77;;
76854;SDS011;66343;44.588;33.450;2022-12-24T07:19:01;45.97;;;22.90;;
76854;SDS011;66343;44.588;33.450;2022-12-24T07:22:00;38.33;;;20.73;;
76854;SDS011;66343;44.588;33.450;2022-12-24T07:25:02;39.92;;;20.13;;
76854;SDS011;66343;44.588;33.450;2022-12-24T07:27:41;36.40;;;20.52;;
76854;SDS011;66343;44.588;33.450;2022-12-24T07:30:35;37.22;;;20.60;;
76854;SDS011;66343;44.588;33.450;2022-12-24T07:33:36;38.55;;;21.17;;
76854;SDS011;66343;44.588;33.450;2022-12-24T07:36:40;37.72;;;20.13;;
76854;SDS011;66343;44.588;33.450;2022-12-24T07:39:32;39.92;;;21.60;;
76854;SDS011;66343;44.588;33.450;2022-12-24T07:42:23;37.28;;;20.20;;
76854;SDS011;66343;44.588;33.450;2022-12-24T07:45:22;39.80;;;20.60;;
76854;SDS011;66343;44.588;33.450;2022-12-24T07:48:17;36.38;;;19.63;;
76854;SDS011;66343;44.588;33.450;2022-12-24T07:51:19;36.58;;;20.05;;
76854;SDS011;66343;44.588;33.450;2022-12-24T07:54:31;36.47;;;20.25;;
76854;SDS011;66343;44.588;33.450;2022-12-24T07:57:16;31.85;;;17.70;;
76854;SDS011;66343;44.588;33.450;2022-12-24T08:00:17;33.42;;;19.00;;
76854;SDS011;66343;44.588;33.450;2022-12-24T08:03:22;32.60;;;18.17;;
76854;SDS011;66343;44.588;33.450;2022-12-24T08:06:17;35.45;;;19.30;;
76854;SDS011;66343;44.588;33.450;2022-12-24T08:12:04;35.85;;;18.33;;
76854;SDS011;66343;44.588;33.450;2022-12-24T08:15:16;38.08;;;19.63;;
76854;SDS011;66343;44.588;33.450;2022-12-24T08:18:20;36.60;;;20.10;;
76854;SDS011;66343;44.588;33.450;2022-12-24T08:21:23;39.65;;;21.35;;
76854;SDS011;66343;44.588;33.450;2022-12-24T08:24:26;36.38;;;19.73;;
76854;SDS011;66343;44.588;33.450;2022-12-24T08:27:30;37.60;;;19.80;;
76854;SDS011;66343;44.588;33.450;2022-12-24T08:30:40;36.78;;;19.65;;
76854;SDS011;66343;44.588;33.450;2022-12-24T08:33:40;39.65;;;21.75;;
76854;SDS011;66343;44.588;33.450;2022-12-24T08:36:42;39.42;;;21.05;;
76854;SDS011;66343;44.588;33.450;2022-12-24T08:39:37;42.17;;;21.58;;
76854;SDS011;66343;44.588;33.450;2022-12-24T08:42:29;40.47;;;19.60;;
76854;SDS011;66343;44.588;33.450;2022-12-24T08:45:20;30.58;;;16.63;;
76854;SDS011;66343;44.588;33.450;2022-12-24T08:48:12;30.90;;;16.42;;
76854;SDS011;66343;44.588;33.450;2022-12-24T08:51:05;30.45;;;15.32;;
76854;SDS011;66343;44.588;33.450;2022-12-24T08:53:59;24.88;;;11.98;;
76854;SDS011;66343;44.588;33.450;2022-12-24T08:56:49;29.00;;;12.77;;
76854;SDS011;66343;44.588;33.450;2022-12-24T08:59:51;19.02;;;10.35;;
76854;SDS011;66343;44.588;33.450;2022-12-24T09:02:30;19.67;;;11.20;;
76854;SDS011;66343;44.588;33.450;2022-12-24T09:05:09;22.52;;;10.50;;
76854;SDS011;66343;44.588;33.450;2022-12-24T09:08:00;26.65;;;12.10;;
76854;SDS011;66343;44.588;33.450;2022-12-24T09:14:07;21.92;;;10.43;;
76854;SDS011;66343;44.588;33.450;2022-12-24T09:17:17;25.38;;;12.07;;
76854;SDS011;66343;44.588;33.450;2022-12-24T09:20:21;20.17;;;10.43;;
76854;SDS011;66343;44.588;33.450;2022-12-24T09:23:30;22.52;;;11.27;;
76854;SDS011;66343;44.588;33.450;2022-12-24T09:26:39;23.70;;;10.13;;
76854;SDS011;66343;44.588;33.450;2022-12-24T09:29:52;23.42;;;10.30;;
76854;SDS011;66343;44.588;33.450;2022-12-24T09:35:59;23.30;;;10.95;;
76854;SDS011;66343;44.588;33.450;2022-12-24T09:41:52;26.98;;;11.45;;
76854;SDS011;66343;44.588;33.450;2022-12-24T09:48:02;17.90;;;8.82;;
76854;SDS011;66343;44.588;33.450;2022-12-24T09:50:58;13.52;;;7.43;;
76854;SDS011;66343;44.588;33.450;2022-12-24T09:53:53;16.50;;;7.90;;
76854;SDS011;66343;44.588;33.450;2022-12-24T09:56:52;22.20;;;9.48;;
76854;SDS011;66343;44.588;33.450;2022-12-24T09:59:57;15.50;;;8.52;;
76854;SDS011;66343;44.588;33.450;2022-12-24T10:03:17;17.65;;;8.05;;
76854;SDS011;66343;44.588;33.450;2022-12-24T10:06:23;13.55;;;7.63;;
76854;SDS011;66343;44.588;33.450;2022-12-24T10:10:00;15.07;;;8.15;;
76854;SDS011;66343;44.588;33.450;2022-12-24T10:13:22;18.63;;;8.80;;
76854;SDS011;66343;44.588;33.450;2022-12-24T10:23:21;14.65;;;6.90;;
76854;SDS011;66343;44.588;33.450;2022-12-24T10:26:16;16.08;;;7.30;;
76854;SDS011;66343;44.588;33.450;2022-12-24T10:29:11;15.07;;;7.45;;
76854;SDS011;66343;44.588;33.450;2022-12-24T10:32:22;19.13;;;8.65;;
76854;SDS011;66343;44.588;33.450;2022-12-24T10:35:31;19.75;;;9.25;;
76854;SDS011;66343;44.588;33.450;2022-12-24T10:38:51;18.63;;;10.35;;
76854;SDS011;66343;44.588;33.450;2022-12-24T10:42:03;23.90;;;10.85;;
76854;SDS011;66343;44.588;33.450;2022-12-24T10:45:12;19.58;;;11.10;;
76854;SDS011;66343;44.588;33.450;2022-12-24T10:48:17;19.85;;;10.63;;
76854;SDS011;66343;44.588;33.450;2022-12-24T10:57:46;17.27;;;9.82;;
76854;SDS011;66343;44.588;33.450;2022-12-24T11:00:56;20.95;;;11.05;;
76854;SDS011;66343;44.588;33.450;2022-12-24T11:03:59;17.48;;;10.05;;
76854;SDS011;66343;44.588;33.450;2022-12-24T11:10:03;17.42;;;10.02;;
76854;SDS011;66343;44.588;33.450;2022-12-24T11:13:01;18.83;;;10.13;;
76854;SDS011;66343;44.588;33.450;2022-12-24T11:16:20;17.75;;;9.80;;
76854;SDS011;66343;44.588;33.450;2022-12-24T11:19:39;20.13;;;10.38;;
76854;SDS011;66343;44.588;33.450;2022-12-24T11:22:36;20.35;;;10.50;;
76854;SDS011;66343;44.588;33.450;2022-12-24T11:25:34;24.83;;;11.88;;
76854;SDS011;66343;44.588;33.450;2022-12-24T11:28:41;21.77;;;12.45;;
76854;SDS011;66343;44.588;33.450;2022-12-24T11:32:14;20.35;;;11.20;;
76854;SDS011;66343;44.588;33.450;2022-12-24T11:35:18;16.73;;;10.13;;
76854;SDS011;66343;44.588;33.450;2022-12-24T11:41:11;19.15;;;9.63;;
76854;SDS011;66343;44.588;33.450;2022-12-24T11:44:26;19.77;;;10.82;;
76854;SDS011;66343;44.588;33.450;2022-12-24T11:47:30;18.75;;;11.10;;
76854;SDS011;66343;44.588;33.450;2022-12-24T11:53:54;20.20;;;9.95;;
76854;SDS011;66343;44.588;33.450;2022-12-24T11:57:00;17.48;;;10.25;;
76854;SDS011;66343;44.588;33.450;2022-12-24T11:59:58;19.05;;;9.73;;
76854;SDS011;66343;44.588;33.450;2022-12-24T12:02:59;15.50;;;9.85;;
76854;SDS011;66343;44.588;33.450;2022-12-24T12:06:00;19.63;;;10.15;;
76854;SDS011;66343;44.588;33.450;2022-12-24T12:09:02;17.13;;;9.93;;
76854;SDS011;66343;44.588;33.450;2022-12-24T12:12:06;18.90;;;10.15;;
76854;SDS011;66343;44.588;33.450;2022-12-24T12:18:32;14.70;;;8.48;;
76854;SDS011;66343;44.588;33.450;2022-12-24T12:21:43;12.68;;;7.75;;
76854;SDS011;66343;44.588;33.450;2022-12-24T12:24:42;15.07;;;8.60;;
76854;SDS011;66343;44.588;33.450;2022-12-24T12:27:43;15.65;;;7.95;;
76854;SDS011;66343;44.588;33.450;2022-12-24T12:30:43;14.93;;;7.43;;
76854;SDS011;66343;44.588;33.450;2022-12-24T12:33:48;15.75;;;8.57;;
76854;SDS011;66343;44.588;33.450;2022-12-24T12:36:55;15.20;;;9.10;;
76854;SDS011;66343;44.588;33.450;2022-12-24T12:39:59;15.70;;;8.65;;
76854;SDS011;66343;44.588;33.450;2022-12-24T12:42:57;15.65;;;7.82;;
76854;SDS011;66343;44.588;33.450;2022-12-24T12:49:42;14.02;;;8.25;;
76854;SDS011;66343;44.588;33.450;2022-12-24T12:56:14;15.45;;;7.60;;
76854;SDS011;66343;44.588;33.450;2022-12-24T12:59:41;17.92;;;8.05;;
76854;SDS011;66343;44.588;33.450;2022-12-24T13:15:42;18.95;;;7.78;;
76854;SDS011;66343;44.588;33.450;2022-12-24T13:22:17;19.65;;;9.48;;
76854;SDS011;66343;44.588;33.450;2022-12-24T13:25:19;19.05;;;8.90;;
76854;SDS011;66343;44.588;33.450;2022-12-24T13:34:33;20.02;;;10.77;;
76854;SDS011;66343;44.588;33.450;2022-12-24T13:40:25;23.42;;;12.05;;
76854;SDS011;66343;44.588;33.450;2022-12-24T13:43:23;21.00;;;11.73;;
76854;SDS011;66343;44.588;33.450;2022-12-24T13:49:45;19.27;;;10.32;;
76854;SDS011;66343;44.588;33.450;2022-12-24T13:52:53;20.00;;;11.15;;
76854;SDS011;66343;44.588;33.450;2022-12-24T13:55:34;22.80;;;11.02;;
76854;SDS011;66343;44.588;33.450;2022-12-24T13:58:34;17.40;;;10.18;;
76854;SDS011;66343;44.588;33.450;2022-12-24T14:01:40;19.73;;;10.77;;
76854;SDS011;66343;44.588;33.450;2022-12-24T14:04:34;20.00;;;10.88;;
76854;SDS011;66343;44.588;33.450;2022-12-24T14:07:33;23.20;;;10.77;;
76854;SDS011;66343;44.588;33.450;2022-12-24T14:10:32;17.63;;;9.90;;
76854;SDS011;66343;44.588;33.450;2022-12-24T14:16:52;18.70;;;9.30;;
76854;SDS011;66343;44.588;33.450;2022-12-24T14:19:56;17.13;;;9.13;;
76854;SDS011;66343;44.588;33.450;2022-12-24T14:22:56;18.98;;;9.77;;
76854;SDS011;66343;44.588;33.450;2022-12-24T14:26:00;18.60;;;9.23;;
76854;SDS011;66343;44.588;33.450;2022-12-24T14:29:10;18.17;;;9.77;;
76854;SDS011;66343;44.588;33.450;2022-12-24T14:32:15;17.20;;;8.85;;
76854;SDS011;66343;44.588;33.450;2022-12-24T14:35:25;15.80;;;8.80;;
76854;SDS011;66343;44.588;33.450;2022-12-24T14:38:23;15.88;;;7.90;;
76854;SDS011;66343;44.588;33.450;2022-12-24T14:41:27;15.95;;;7.97;;
76854;SDS011;66343;44.588;33.450;2022-12-24T14:44:27;16.92;;;8.85;;
76854;SDS011;66343;44.588;33.450;2022-12-24T14:47:39;16.50;;;8.77;;
76854;SDS011;66343;44.588;33.450;2022-12-24T14:50:39;19.27;;;9.68;;
76854;SDS011;66343;44.588;33.450;2022-12-24T14:57:19;18.25;;;9.13;;
76854;SDS011;66343;44.588;33.450;2022-12-24T15:00:26;16.42;;;8.52;;
76854;SDS011;66343;44.588;33.450;2022-12-24T15:03:32;18.30;;;9.85;;
76854;SDS011;66343;44.588;33.450;2022-12-24T15:09:46;18.08;;;9.00;;
76854;SDS011;66343;44.588;33.450;2022-12-24T15:12:45;17.60;;;9.23;;
76854;SDS011;66343;44.588;33.450;2022-12-24T15:15:42;17.02;;;8.82;;
76854;SDS011;66343;44.588;33.450;2022-12-24T15:18:44;16.67;;;8.68;;
76854;SDS011;66343;44.588;33.450;2022-12-24T15:21:43;16.17;;;8.98;;
76854;SDS011;66343;44.588;33.450;2022-12-24T15:24:36;18.45;;;9.27;;
76854;SDS011;66343;44.588;33.450;2022-12-24T15:27:37;17.33;;;8.88;;
76854;SDS011;66343;44.588;33.450;2022-12-24T15:30:34;15.63;;;8.05;;
76854;SDS011;66343;44.588;33.450;2022-12-24T15:33:28;16.35;;;8.90;;
76854;SDS011;66343;44.588;33.450;2022-12-24T15:36:36;15.52;;;8.57;;
76854;SDS011;66343;44.588;33.450;2022-12-24T15:39:34;22.10;;;11.55;;
76854;SDS011;66343;44.588;33.450;2022-12-24T15:42:38;22.15;;;11.73;;
76854;SDS011;66343;44.588;33.450;2022-12-24T15:45:18;23.30;;;11.20;;
76854;SDS011;66343;44.588;33.450;2022-12-24T15:48:08;19.63;;;10.93;;
76854;SDS011;66343;44.588;33.450;2022-12-24T15:50:47;20.80;;;11.57;;
76854;SDS011;66343;44.588;33.450;2022-12-24T15:53:31;18.98;;;9.75;;
76854;SDS011;66343;44.588;33.450;2022-12-24T15:56:27;16.65;;;9.30;;
76854;SDS011;66343;44.588;33.450;2022-12-24T15:59:29;14.90;;;7.30;;
76854;SDS011;66343;44.588;33.450;2022-12-24T16:02:30;14.25;;;7.93;;
76854;SDS011;66343;44.588;33.450;2022-12-24T16:05:31;13.90;;;6.70;;
76854;SDS011;66343;44.588;33.450;2022-12-24T16:08:35;13.77;;;6.22;;
76854;SDS011;66343;44.588;33.450;2022-12-24T16:11:47;13.25;;;7.30;;
76854;SDS011;66343;44.588;33.450;2022-12-24T16:14:45;17.38;;;7.65;;
76854;SDS011;66343;44.588;33.450;2022-12-24T16:17:46;17.13;;;7.88;;
76854;SDS011;66343;44.588;33.450;2022-12-24T16:20:36;16.52;;;8.93;;
76854;SDS011;66343;44.588;33.450;2022-12-24T16:26:41;16.73;;;9.48;;
76854;SDS011;66343;44.588;33.450;2022-12-24T16:29:34;16.38;;;9.93;;
76854;SDS011;66343;44.588;33.450;2022-12-24T16:32:32;21.50;;;10.65;;
76854;SDS011;66343;44.588;33.450;2022-12-24T16:35:27;20.63;;;10.95;;
76854;SDS011;66343;44.588;33.450;2022-12-24T16:41:11;16.63;;;9.75;;
76854;SDS011;66343;44.588;33.450;2022-12-24T16:44:15;20.30;;;10.20;;
76854;SDS011;66343;44.588;33.450;2022-12-24T16:50:10;19.65;;;10.32;;
76854;SDS011;66343;44.588;33.450;2022-12-24T16:53:01;17.02;;;9.73;;
76854;SDS011;66343;44.588;33.450;2022-12-24T16:56:07;17.20;;;10.88;;
76854;SDS011;66343;44.588;33.450;2022-12-24T16:59:03;19.20;;;11.73;;
76854;SDS011;66343;44.588;33.450;2022-12-24T17:01:37;17.63;;;10.60;;
76854;SDS011;66343;44.588;33.450;2022-12-24T17:04:17;20.20;;;11.25;;
76854;SDS011;66343;44.588;33.450;2022-12-24T17:07:16;17.55;;;10.38;;
76854;SDS011;66343;44.588;33.450;2022-12-24T17:10:10;16.90;;;10.25;;
76854;SDS011;66343;44.588;33.450;2022-12-24T17:13:13;21.38;;;11.35;;
76854;SDS011;66343;44.588;33.450;2022-12-24T17:16:15;17.38;;;10.23;;
76854;SDS011;66343;44.588;33.450;2022-12-24T17:19:07;22.88;;;10.05;;
76854;SDS011;66343;44.588;33.450;2022-12-24T17:21:48;17.05;;;9.95;;
76854;SDS011;66343;44.588;33.450;2022-12-24T17:25:00;18.65;;;10.65;;
76854;SDS011;66343;44.588;33.450;2022-12-24T17:27:51;16.20;;;10.00;;
76854;SDS011;66343;44.588;33.450;2022-12-24T17:30:40;16.33;;;9.55;;
76854;SDS011;66343;44.588;33.450;2022-12-24T17:33:19;21.48;;;10.52;;
76854;SDS011;66343;44.588;33.450;2022-12-24T17:35:52;22.23;;;11.38;;
76854;SDS011;66343;44.588;33.450;2022-12-24T17:38:49;19.88;;;10.68;;
76854;SDS011;66343;44.588;33.450;2022-12-24T17:41:41;22.38;;;12.85;;
76854;SDS011;66343;44.588;33.450;2022-12-24T17:44:30;24.80;;;13.65;;
76854;SDS011;66343;44.588;33.450;2022-12-24T17:47:24;20.60;;;10.60;;
76854;SDS011;66343;44.588;33.450;2022-12-24T17:50:26;20.95;;;10.80;;
76854;SDS011;66343;44.588;33.450;2022-12-24T17:53:04;20.13;;;9.02;;
76854;SDS011;66343;44.588;33.450;2022-12-24T17:56:00;18.63;;;10.20;;
76854;SDS011;66343;44.588;33.450;2022-12-24T17:58:59;19.10;;;8.93;;
76854;SDS011;66343;44.588;33.450;2022-12-24T18:01:56;15.05;;;9.00;;
76854;SDS011;66343;44.588;33.450;2022-12-24T18:04:44;17.83;;;8.52;;
76854;SDS011;66343;44.588;33.450;2022-12-24T18:07:34;21.80;;;12.20;;
76854;SDS011;66343;44.588;33.450;2022-12-24T18:13:49;18.17;;;9.48;;
76854;SDS011;66343;44.588;33.450;2022-12-24T18:16:48;21.75;;;11.68;;
76854;SDS011;66343;44.588;33.450;2022-12-24T18:19:44;21.80;;;11.00;;
76854;SDS011;66343;44.588;33.450;2022-12-24T18:22:38;20.60;;;10.77;;
76854;SDS011;66343;44.588;33.450;2022-12-24T18:25:30;16.90;;;9.70;;
76854;SDS011;66343;44.588;33.450;2022-12-24T18:28:08;16.58;;;9.48;;
76854;SDS011;66343;44.588;33.450;2022-12-24T18:30:55;20.25;;;10.10;;
76854;SDS011;66343;44.588;33.450;2022-12-24T18:33:47;16.85;;;9.85;;
76854;SDS011;66343;44.588;33.450;2022-12-24T18:36:38;20.73;;;11.27;;
76854;SDS011;66343;44.588;33.450;2022-12-24T18:39:28;20.25;;;11.63;;
76854;SDS011;66343;44.588;33.450;2022-12-24T18:42:22;21.90;;;13.30;;
76854;SDS011;66343;44.588;33.450;2022-12-24T18:45:08;23.85;;;12.93;;
76854;SDS011;66343;44.588;33.450;2022-12-24T18:48:06;20.83;;;11.18;;
76854;SDS011;66343;44.588;33.450;2022-12-24T18:51:03;20.02;;;11.10;;
76854;SDS011;66343;44.588;33.450;2022-12-24T18:54:00;17.83;;;10.07;;
76854;SDS011;66343;44.588;33.450;2022-12-24T18:56:59;17.98;;;10.70;;
76854;SDS011;66343;44.588;33.450;2022-12-24T18:59:59;23.48;;;12.35;;
76854;SDS011;66343;44.588;33.450;2022-12-24T19:02:35;19.52;;;11.30;;
76854;SDS011;66343;44.588;33.450;2022-12-24T19:05:09;19.55;;;12.05;;
76854;SDS011;66343;44.588;33.450;2022-12-24T19:07:43;19.05;;;10.60;;
76854;SDS011;66343;44.588;33.450;2022-12-24T19:10:19;24.17;;;11.65;;
76854;SDS011;66343;44.588;33.450;2022-12-24T19:12:52;22.02;;;11.38;;
76854;SDS011;66343;44.588;33.450;2022-12-24T19:15:51;21.13;;;10.73;;
76854;SDS011;66343;44.588;33.450;2022-12-24T19:18:50;16.85;;;10.93;;
76854;SDS011;66343;44.588;33.450;2022-12-24T19:21:45;18.90;;;10.50;;